< < Back
Terminal Aerodrome Forecast


Current Version              Previous Versions:   1  2  3  4  5  6  7  8  9  

Terminal Aerodrome Forecast

598
FTUS42 KGSP 232335
TAFAND
TAF
KAND 232335Z 2400/2424 27004KT P6SM FEW050 BKN250
     FM240900 VRB02KT 5SM BR SCT250
     FM241400 24004KT P6SM FEW050 SCT250
     FM241700 23006KT P6SM SCT060=

Latest METAR

676
SAUS70 KWBC 240000
MTRAND
METAR KAND 232356Z AUTO 29004KT 10SM CLR 28/21 A3000 RMK AO2 SLP148
60000 T02830206 10356 20278 55005


USA.gov is the U.S. government's official web portal to all federal, state and local government web resources and services.